Time;durP1;ratioP1;P1;durP2;ratioP2;P2;SDS_P1;SDS_P2;PMS_P1;PMS_P2;Temp;Humidity;BMP_temperature;BMP_pressure;BME280_temperature;BME280_humidity;BME280_pressure;Samples;Min_cycle;Max_cycle;Signal;HPM_P1;HPM_P2
2022/09/25 00:01:37;;;;;;;23.23;9.63;;;;;;;-145.69;100.00;71744.66;5033046;28;20283;-75
2022/09/25 00:04:04;;;;;;;21.00;8.23;;;;;;;-145.69;100.00;71760.59;5032910;28;20210;-75
2022/09/25 00:06:31;;;;;;;18.07;8.73;;;;;;;-145.69;100.00;71766.56;5032928;28;20232;-75
2022/09/25 00:09:00;;;;;;;19.87;9.20;;;;;;;-145.69;100.00;71744.66;5033348;28;20235;-75
2022/09/25 00:11:34;;;;;;;20.80;9.30;;;;;;;-145.69;100.00;71744.66;5033301;28;20290;-74
2022/09/25 00:14:01;;;;;;;18.90;9.17;;;;;;;-145.69;100.00;71748.66;5033375;28;20208;-75
2022/09/25 00:16:30;;;;;;;16.67;7.93;;;;;;;-145.69;100.00;71774.50;5032602;28;20621;-75
2022/09/25 00:21:43;;;;;;;27.83;10.57;;;;;;;-145.69;100.00;71750.63;5033236;28;20206;-75
2022/09/25 00:24:12;;;;;;;22.63;10.20;;;;;;;-145.69;100.00;71760.59;5031899;28;20214;-75
2022/09/25 00:26:43;;;;;;;25.43;11.03;;;;;;;-145.69;100.00;71754.63;5030865;28;20232;-74
2022/09/25 00:29:15;;;;;;;22.03;10.13;;;;;;;-145.69;100.00;71754.63;5032907;28;20204;-75
2022/09/25 00:31:42;;;;;;;24.47;10.40;;;;;;;-145.69;100.00;71754.63;5032801;28;20195;-74
2022/09/25 00:34:10;;;;;;;26.93;10.83;;;;;;;-145.69;100.00;71742.69;5032717;28;20582;-74
2022/09/25 00:36:36;;;;;;;32.33;12.10;;;;;;;-145.69;100.00;71724.75;5031863;28;20196;-75
2022/09/25 00:39:03;;;;;;;32.40;11.93;;;;;;;-145.69;100.00;71722.78;5032958;28;20294;-75
2022/09/25 00:41:32;;;;;;;25.60;11.10;;;;;;;-145.69;100.00;71724.75;5032917;28;20227;-74
2022/09/25 00:44:03;;;;;;;28.97;11.30;;;;;;;-145.69;100.00;71720.78;5032679;28;20624;-75
2022/09/25 00:46:34;;;;;;;29.20;11.67;;;;;;;-145.69;100.00;71736.72;5032664;28;20228;-74
2022/09/25 00:49:04;;;;;;;27.30;10.87;;;;;;;-145.69;100.00;71734.72;5032366;28;20692;-75
2022/09/25 00:51:37;;;;;;;25.60;10.53;;;;;;;-145.69;100.00;71744.66;5032394;28;20223;-75
2022/09/25 00:54:06;;;;;;;25.97;10.83;;;;;;;-145.69;100.00;71760.59;5032888;28;20206;-75
2022/09/25 00:56:38;;;;;;;23.73;10.07;;;;;;;-145.69;100.00;71758.59;5032336;28;20246;-75
2022/09/25 00:59:11;;;;;;;23.97;10.27;;;;;;;-145.69;100.00;71766.56;5032428;28;20677;-75
2022/09/25 01:01:37;;;;;;;34.53;10.87;;;;;;;-145.69;100.00;71768.53;5032346;28;20204;-75
2022/09/25 01:04:04;;;;;;;25.87;10.67;;;;;;;-145.69;100.00;71756.59;5032584;28;20617;-75
2022/09/25 01:06:34;;;;;;;26.10;10.47;;;;;;;-145.69;100.00;71760.59;5032007;28;20224;-75
2022/09/25 01:09:02;;;;;;;24.47;10.37;;;;;;;-145.69;100.00;71760.59;5032793;28;20295;-74
2022/09/25 01:11:29;;;;;;;30.37;11.33;;;;;;;-145.69;100.00;71760.59;5032613;28;20204;-75
2022/09/25 01:14:02;;;;;;;28.13;10.97;;;;;;;-145.69;100.00;71764.56;5032124;28;20207;-75
2022/09/25 01:16:38;;;;;;;24.13;10.20;;;;;;;-145.69;100.00;71782.47;5032169;28;20790;-75
2022/09/25 01:19:15;;;;;;;26.40;11.10;;;;;;;-145.69;100.00;71786.47;5032509;28;20293;-75
2022/09/25 01:21:50;;;;;;;32.63;11.63;;;;;;;-145.69;100.00;71778.50;5032182;28;20261;-75
2022/09/25 01:24:40;;;;;;;29.33;9.87;;;;;;;-145.69;100.00;71790.44;5032402;28;20662;-74
2022/09/25 01:27:25;;;;;;;24.97;9.63;;;;;;;-145.69;100.00;71810.34;5032355;28;20250;-75
2022/09/25 01:29:59;;;;;;;28.33;10.73;;;;;;;-145.69;100.00;71792.44;5032309;28;20200;-75
2022/09/25 01:32:32;;;;;;;29.00;10.73;;;;;;;-145.69;100.00;71784.47;5032356;28;20211;-74
2022/09/25 01:35:03;;;;;;;22.60;9.07;;;;;;;-145.69;100.00;71810.34;5032209;28;20653;-75
2022/09/25 01:37:37;;;;;;;21.37;9.90;;;;;;;-145.69;100.00;71812.31;5032106;28;20562;-75
2022/09/25 01:40:10;;;;;;;30.43;10.73;;;;;;;-145.69;100.00;71806.34;5031975;28;20570;-75
2022/09/25 01:42:42;;;;;;;28.40;10.53;;;;;;;-145.69;100.00;71784.47;5032259;28;20266;-75
2022/09/25 01:45:17;;;;;;;33.67;13.27;;;;;;;-145.69;100.00;71780.50;5032299;28;20239;-75
2022/09/25 01:47:47;;;;;;;38.10;12.37;;;;;;;-145.69;100.00;71772.53;5034134;28;20227;-75
2022/09/25 01:50:19;;;;;;;30.83;12.03;;;;;;;-145.69;100.00;71762.56;5035797;28;20208;-75
2022/09/25 01:52:50;;;;;;;34.43;12.60;;;;;;;-145.69;100.00;71762.56;5035810;28;20204;-75
2022/09/25 01:55:21;;;;;;;31.57;11.07;;;;;;;-145.69;100.00;71752.63;5035556;28;20206;-75
2022/09/25 01:57:53;;;;;;;29.23;11.30;;;;;;;-145.69;100.00;71760.59;5035379;28;20692;-75
2022/09/25 02:00:24;;;;;;;25.60;10.43;;;;;;;-145.69;100.00;71748.66;5034984;28;20201;-76
2022/09/25 02:02:55;;;;;;;30.77;11.67;;;;;;;-145.69;100.00;71748.66;5035496;28;20196;-75
2022/09/25 02:05:27;;;;;;;27.10;11.07;;;;;;;-145.69;100.00;71748.66;5035441;28;20601;-75
2022/09/25 02:07:59;;;;;;;30.50;11.27;;;;;;;-145.69;100.00;71736.72;5035133;28;20784;-76
2022/09/25 02:10:33;;;;;;;28.73;11.20;;;;;;;-145.69;100.00;71730.72;5035157;28;20204;-75
2022/09/25 02:13:07;;;;;;;29.57;11.10;;;;;;;-145.69;100.00;71726.75;5035317;28;20654;-75
2022/09/25 02:15:38;;;;;;;36.23;12.27;;;;;;;-145.69;100.00;71720.78;5035103;28;20236;-75
2022/09/25 02:20:59;;;;;;;30.17;11.67;;;;;;;-145.69;100.00;71696.91;5035191;28;20302;-74
2022/09/25 02:23:36;;;;;;;27.03;10.33;;;;;;;-145.69;100.00;71682.97;5035218;28;20248;-74
2022/09/25 02:26:06;;;;;;;31.33;11.27;;;;;;;-145.69;100.00;71694.91;5034584;28;20196;-74
2022/09/25 02:28:33;;;;;;;26.87;10.80;;;;;;;-145.69;100.00;71688.94;5035234;28;20204;-74
2022/09/25 02:31:03;;;;;;;25.67;10.67;;;;;;;-145.69;100.00;71696.91;5034402;28;20673;-74
2022/09/25 02:33:30;;;;;;;29.33;10.63;;;;;;;-145.69;100.00;71698.91;5034667;28;20286;-76
2022/09/25 02:36:00;;;;;;;27.20;10.27;;;;;;;-145.69;100.00;71718.78;5035726;28;20206;-76
2022/09/25 02:38:28;;;;;;;32.10;10.83;;;;;;;-145.69;100.00;71724.75;5035870;28;20651;-76
2022/09/25 02:41:00;;;;;;;27.23;10.07;;;;;;;-145.69;100.00;71720.78;5035021;28;20204;-76
2022/09/25 02:43:34;;;;;;;34.73;12.13;;;;;;;-145.69;100.00;71708.84;5034658;28;20199;-75
2022/09/25 02:46:09;;;;;;;30.30;10.83;;;;;;;-145.69;100.00;71688.94;5034534;28;20203;-75
2022/09/25 02:48:44;;;;;;;30.50;11.57;;;;;;;-145.69;100.00;71677.00;5034865;28;20254;-75
2022/09/25 02:51:16;;;;;;;45.50;13.43;;;;;;;-145.69;100.00;71657.09;5034378;28;20214;-75
2022/09/25 02:53:46;;;;;;;34.50;12.53;;;;;;;-145.69;100.00;71665.06;5034398;28;20567;-75
2022/09/25 02:56:20;;;;;;;34.17;13.20;;;;;;;-145.69;100.00;71657.09;5034157;28;20204;-75
2022/09/25 02:58:51;;;;;;;28.10;11.63;;;;;;;-145.69;100.00;71649.16;5033558;28;20222;-75
2022/09/25 03:01:24;;;;;;;31.17;12.00;;;;;;;-145.69;100.00;71653.13;5034445;28;20283;-75
2022/09/25 03:03:55;;;;;;;27.87;10.23;;;;;;;-145.69;100.00;71659.09;5034372;28;20254;-75
2022/09/25 03:06:22;;;;;;;27.50;10.43;;;;;;;-145.69;100.00;71669.03;5034073;28;20258;-75
2022/09/25 03:08:55;;;;;;;21.33;9.70;;;;;;;-145.69;100.00;71645.16;5033945;28;20228;-75
2022/09/25 03:11:25;;;;;;;27.07;10.70;;;;;;;-145.69;100.00;71639.19;5034173;28;20234;-76
2022/09/25 03:13:56;;;;;;;27.63;11.10;;;;;;;-145.69;100.00;71657.09;5034123;28;20204;-76
2022/09/25 03:16:32;;;;;;;24.60;10.53;;;;;;;-145.69;100.00;71661.09;5033928;28;20250;-75
2022/09/25 03:18:58;;;;;;;23.33;8.97;;;;;;;-145.69;100.00;71677.00;5034123;28;20231;-75
2022/09/25 03:21:25;;;;;;;19.70;9.17;;;;;;;-145.69;100.00;71690.94;5033641;28;20214;-75
2022/09/25 03:23:52;;;;;;;21.63;9.03;;;;;;;-145.69;100.00;71700.88;5033221;28;20568;-75
2022/09/25 03:26:21;;;;;;;19.63;8.60;;;;;;;-145.69;100.00;71716.81;5034045;28;20200;-75
2022/09/25 03:28:47;;;;;;;23.03;9.40;;;;;;;-145.69;100.00;71716.81;5033181;28;20199;-75
2022/09/25 03:31:14;;;;;;;24.67;9.57;;;;;;;-145.69;100.00;71708.84;5033840;28;20200;-75
2022/09/25 03:33:43;;;;;;;24.77;10.23;;;;;;;-145.69;100.00;71704.88;5033489;28;20211;-75
2022/09/25 03:36:12;;;;;;;25.30;11.27;;;;;;;-145.69;100.00;71688.94;5033908;28;20211;-76
2022/09/25 03:38:40;;;;;;;25.93;11.17;;;;;;;-145.69;100.00;71688.94;5033400;28;20212;-75
2022/09/25 03:41:08;;;;;;;16.97;8.30;;;;;;;-145.69;100.00;71726.75;5033637;28;20211;-75
2022/09/25 03:43:36;;;;;;;24.23;8.50;;;;;;;-145.69;100.00;71728.75;5033725;28;20204;-75
2022/09/25 03:46:02;;;;;;;21.70;8.90;;;;;;;-145.69;100.00;71744.66;5033424;28;20206;-75
2022/09/25 03:48:29;;;;;;;18.93;8.50;;;;;;;-145.69;100.00;71736.72;5033422;28;20272;-75
2022/09/25 03:50:58;;;;;;;26.47;9.63;;;;;;;-145.69;100.00;71722.78;5033552;28;20208;-75
2022/09/25 03:53:26;;;;;;;25.93;10.67;;;;;;;-145.69;100.00;71704.88;5033678;28;20208;-75
2022/09/25 03:55:53;;;;;;;38.87;9.17;;;;;;;-145.69;100.00;71734.72;5033431;28;20196;-75
2022/09/25 03:58:20;;;;;;;22.33;9.37;;;;;;;-145.69;100.00;71740.69;5032573;28;20287;-75
2022/09/25 04:00:49;;;;;;;31.40;8.83;;;;;;;-145.69;100.00;71750.63;5033353;28;20250;-75
2022/09/25 04:03:16;;;;;;;17.80;8.33;;;;;;;-145.69;100.00;71748.66;5033482;28;20207;-75
2022/09/25 04:05:43;;;;;;;18.20;8.63;;;;;;;-145.69;100.00;71734.72;5032675;28;20299;-75
2022/09/25 04:08:11;;;;;;;21.57;8.50;;;;;;;-145.69;100.00;71732.72;5033221;28;20327;-75
2022/09/25 04:10:39;;;;;;;27.93;9.43;;;;;;;-145.69;100.00;71732.72;5032779;28;20204;-76
2022/09/25 04:13:06;;;;;;;22.13;9.33;;;;;;;-145.69;100.00;71728.75;5032599;28;20203;-75
2022/09/25 04:15:33;;;;;;;23.23;10.37;;;;;;;-145.69;100.00;71728.75;5032620;28;20240;-75
2022/09/25 04:18:00;;;;;;;25.87;10.10;;;;;;;-145.69;100.00;71720.78;5032712;28;20192;-75
2022/09/25 04:20:27;;;;;;;21.80;9.23;;;;;;;-145.69;100.00;71720.78;5033226;28;20212;-75
2022/09/25 04:22:53;;;;;;;21.00;9.40;;;;;;;-145.69;100.00;71724.75;5033044;28;20214;-75
2022/09/25 04:25:24;;;;;;;21.50;8.60;;;;;;;-145.69;100.00;71724.75;5032584;28;20207;-75
2022/09/25 04:27:52;;;;;;;23.60;9.50;;;;;;;-145.69;100.00;71724.75;5032550;28;20242;-76
2022/09/25 04:30:19;;;;;;;25.90;9.73;;;;;;;-145.69;100.00;71720.78;5032905;28;20204;-76
2022/09/25 04:35:30;;;;;;;21.50;9.60;;;;;;;-145.69;100.00;71704.88;5032989;28;20562;-75
2022/09/25 04:37:59;;;;;;;24.07;9.90;;;;;;;-145.69;100.00;71710.84;5032809;28;20202;-75
2022/09/25 04:40:26;;;;;;;24.70;10.00;;;;;;;-145.69;100.00;71712.81;5032475;28;20204;-75
2022/09/25 04:42:56;;;;;;;24.10;9.60;;;;;;;-145.69;100.00;71716.81;5032615;28;20566;-75
2022/09/25 04:45:22;;;;;;;35.50;9.20;;;;;;;-145.69;100.00;71712.81;5032890;28;20254;-75
2022/09/25 04:47:49;;;;;;;19.67;9.20;;;;;;;-145.69;100.00;71696.91;5032298;28;20235;-75
2022/09/25 04:50:16;;;;;;;26.37;10.00;;;;;;;-145.69;100.00;71696.91;5032806;28;20693;-75
2022/09/25 04:52:42;;;;;;;30.27;10.83;;;;;;;-145.69;100.00;71677.00;5032209;28;20226;-75
2022/09/25 04:55:09;;;;;;;26.67;10.47;;;;;;;-145.69;100.00;71673.03;5032632;28;20199;-75
2022/09/25 04:57:38;;;;;;;31.27;11.33;;;;;;;-145.69;100.00;71653.13;5032437;28;20200;-75
2022/09/25 05:00:06;;;;;;;22.63;10.30;;;;;;;-145.69;100.00;71645.16;5032629;28;20210;-75
2022/09/25 05:02:32;;;;;;;25.73;9.97;;;;;;;-145.69;100.00;71645.16;5032532;28;20283;-75
2022/09/25 05:04:59;;;;;;;25.47;10.77;;;;;;;-145.69;100.00;71647.16;5032479;28;20288;-76
2022/09/25 05:07:25;;;;;;;25.40;10.27;;;;;;;-145.69;100.00;71643.19;5032053;28;20228;-76
2022/09/25 05:09:53;;;;;;;24.03;10.17;;;;;;;-145.69;100.00;71635.22;5032402;28;20216;-76
2022/09/25 05:12:22;;;;;;;25.67;10.27;;;;;;;-145.69;100.00;71627.25;5032424;28;20196;-76
2022/09/25 05:14:50;;;;;;;23.17;9.90;;;;;;;-145.69;100.00;71619.28;5032852;28;20196;-75
2022/09/25 05:17:16;;;;;;;24.43;10.47;;;;;;;-145.69;100.00;71613.31;5031729;28;20242;-76
2022/09/25 05:19:42;;;;;;;27.90;11.37;;;;;;;-145.69;100.00;71593.44;5032554;28;20211;-75
2022/09/25 05:22:09;;;;;;;26.53;10.67;;;;;;;-145.69;100.00;71593.44;5033427;28;20208;-75
2022/09/25 05:24:37;;;;;;;23.70;10.13;;;;;;;-145.69;100.00;71589.44;5036308;28;20261;-75
2022/09/25 05:27:07;;;;;;;23.83;9.57;;;;;;;-145.69;100.00;71585.47;5035715;28;20678;-76
2022/09/25 05:29:34;;;;;;;25.17;9.87;;;;;;;-145.69;100.00;71577.50;5036231;28;20211;-76
2022/09/25 05:32:02;;;;;;;26.67;11.10;;;;;;;-145.69;100.00;71569.53;5035968;28;20262;-75
2022/09/25 05:34:29;;;;;;;27.37;11.20;;;;;;;-145.69;100.00;71565.56;5035315;28;20287;-75
2022/09/25 05:36:55;;;;;;;23.57;10.33;;;;;;;-145.69;100.00;71565.56;5036040;28;20204;-75
2022/09/25 05:39:22;;;;;;;28.97;10.73;;;;;;;-145.69;100.00;71563.56;5036119;28;20211;-75
2022/09/25 05:41:48;;;;;;;25.97;10.40;;;;;;;-145.69;100.00;71557.59;5036089;28;20200;-75
2022/09/25 05:44:16;;;;;;;24.73;10.10;;;;;;;-145.69;100.00;71553.63;5035563;28;20211;-75
2022/09/25 05:46:43;;;;;;;22.47;9.23;;;;;;;-145.69;100.00;71539.69;5035499;28;20257;-76
2022/09/25 05:49:11;;;;;;;24.20;10.30;;;;;;;-145.69;100.00;71529.75;5035759;28;20322;-75
2022/09/25 05:51:40;;;;;;;27.63;9.50;;;;;;;-145.69;100.00;71517.81;5035919;28;20200;-76
2022/09/25 05:54:06;;;;;;;30.20;10.23;;;;;;;-145.69;100.00;71529.75;5035603;28;20200;-75
2022/09/25 05:56:33;;;;;;;25.73;10.90;;;;;;;-145.69;100.00;71517.81;5035409;28;20192;-75
2022/09/25 05:59:02;;;;;;;25.13;10.40;;;;;;;-145.69;100.00;71511.84;5035760;28;20203;-75
2022/09/25 06:01:29;;;;;;;30.03;10.47;;;;;;;-145.69;100.00;71509.84;5035298;28;20223;-75
2022/09/25 06:03:56;;;;;;;26.80;10.87;;;;;;;-145.69;100.00;71493.94;5035653;28;20773;-76
2022/09/25 06:06:24;;;;;;;30.77;10.40;;;;;;;-145.69;100.00;71493.94;5037325;28;20196;-75
2022/09/25 06:08:53;;;;;;;24.07;10.27;;;;;;;-145.69;100.00;71491.94;5041199;28;20235;-75
2022/09/25 06:11:24;;;;;;;25.57;10.13;;;;;;;-145.69;100.00;71489.94;5043777;28;20200;-75
2022/09/25 06:13:54;;;;;;;23.40;9.63;;;;;;;-145.69;100.00;71480.00;5043152;28;20227;-74
2022/09/25 06:16:21;;;;;;;18.97;8.80;;;;;;;-145.69;100.00;71478.00;5035609;28;20260;-76
2022/09/25 06:18:48;;;;;;;21.10;9.23;;;;;;;-145.69;100.00;71474.03;5035008;28;20562;-76
2022/09/25 06:21:14;;;;;;;25.23;9.60;;;;;;;-145.69;100.00;71482.00;5034748;28;20222;-75
2022/09/25 06:23:44;;;;;;;22.33;9.43;;;;;;;-145.69;100.00;71482.00;5035165;28;20231;-75
2022/09/25 06:26:11;;;;;;;18.53;8.43;;;;;;;-145.69;100.00;71458.09;5034350;28;20709;-75
2022/09/25 06:28:37;;;;;;;19.90;8.83;;;;;;;-145.69;100.00;71450.16;5034836;28;20748;-75
2022/09/25 06:31:04;;;;;;;16.20;8.77;;;;;;;-145.69;100.00;71434.22;5034969;28;20203;-76
2022/09/25 06:33:31;;;;;;;19.37;8.83;;;;;;;-145.69;100.00;71426.28;5035152;28;20571;-75
2022/09/25 06:35:59;;;;;;;18.53;8.77;;;;;;;-145.69;100.00;71410.34;5035061;28;20202;-75
2022/09/25 06:38:26;;;;;;;19.13;10.03;;;;;;;-145.69;100.00;71402.41;5034695;28;20208;-75
2022/09/25 06:40:53;;;;;;;23.20;10.53;;;;;;;-145.69;100.00;71410.34;5034713;28;20299;-75
2022/09/25 06:43:20;;;;;;;19.63;9.37;;;;;;;-145.69;100.00;71414.34;5034609;28;20215;-75
2022/09/25 06:45:47;;;;;;;18.27;8.93;;;;;;;-145.69;100.00;71426.28;5034479;28;20196;-75
2022/09/25 06:48:15;;;;;;;19.07;9.27;;;;;;;-145.69;100.00;71408.38;5034701;28;20281;-75
2022/09/25 06:50:43;;;;;;;20.80;11.88;;;;;;;-145.69;100.00;71388.47;5033921;28;20912;-75
2022/09/25 06:53:11;;;;;;;15.57;8.87;;;;;;;-145.69;100.00;71380.50;5034818;28;20227;-75
2022/09/25 06:55:38;;;;;;;15.57;8.07;;;;;;;-145.69;100.00;71382.50;5034456;28;20282;-76
2022/09/25 06:58:10;;;;;;;17.87;8.63;;;;;;;-145.69;100.00;71376.53;5033425;28;20691;-75
2022/09/25 07:00:36;;;;;;;15.60;7.43;;;;;;;-145.69;100.00;71360.59;5034549;28;20567;-75
2022/09/25 07:05:47;;;;;;;15.83;9.10;;;;;;;-145.69;100.00;71350.66;5034257;28;20563;-76
2022/09/25 07:08:15;;;;;;;14.80;8.63;;;;;;;-145.69;100.00;71320.81;5033736;28;20220;-75
2022/09/25 07:10:48;;;;;;;14.93;8.20;;;;;;;-145.69;100.00;71338.72;5034346;28;20204;-75
2022/09/25 07:13:16;;;;;;;14.80;8.13;;;;;;;-145.69;100.00;71352.66;5034105;28;20223;-75
2022/09/25 07:15:43;;;;;;;13.48;7.70;;;;;;;-145.69;100.00;71358.63;5033947;28;20236;-75
2022/09/25 07:18:09;;;;;;;16.02;8.38;;;;;;;-145.69;100.00;71344.69;5033733;28;20208;-75
2022/09/25 07:20:36;;;;;;;15.90;7.82;;;;;;;-145.69;100.00;71330.75;5034120;28;20562;-75
2022/09/25 07:23:03;;;;;;;15.07;8.63;;;;;;;-145.69;100.00;71328.78;5033733;28;20270;-75
2022/09/25 07:25:30;;;;;;;14.80;8.25;;;;;;;-145.69;100.00;71316.84;5034098;28;20298;-75
2022/09/25 07:27:57;;;;;;;17.52;9.40;;;;;;;-145.69;100.00;71320.81;5033713;28;20296;-75
2022/09/25 07:30:27;;;;;;;18.55;11.02;;;;;;;-145.69;100.00;71290.97;5033882;28;20192;-75
2022/09/25 07:32:53;;;;;;;18.38;10.65;;;;;;;-145.69;100.00;71279.03;5033605;28;20196;-76
2022/09/25 07:35:20;;;;;;;18.00;10.50;;;;;;;-145.69;100.00;71298.94;5033540;28;20204;-75
2022/09/25 07:37:47;;;;;;;16.57;9.83;;;;;;;-145.69;100.00;71267.09;5033524;28;20644;-75
2022/09/25 07:40:13;;;;;;;12.50;7.88;;;;;;;-145.69;100.00;71261.13;5033972;28;20294;-76
2022/09/25 07:42:40;;;;;;;13.63;9.02;;;;;;;-145.69;100.00;71253.16;5033197;28;20287;-76
2022/09/25 07:45:09;;;;;;;15.00;8.80;;;;;;;-145.69;100.00;71253.16;5033328;28;20208;-76
2022/09/25 07:47:36;;;;;;;15.15;9.68;;;;;;;-145.69;100.00;71243.22;5033523;28;20200;-76
2022/09/25 07:50:04;;;;;;;14.88;8.85;;;;;;;-145.69;100.00;71267.09;5032906;28;20461;-76
2022/09/25 07:52:30;;;;;;;13.88;8.57;;;;;;;-145.69;100.00;71273.06;5033237;28;20219;-75
2022/09/25 07:54:57;;;;;;;10.85;7.88;;;;;;;-145.69;100.00;71286.97;5033587;28;20212;-76
2022/09/25 07:57:24;;;;;;;19.30;9.52;;;;;;;-145.69;100.00;71273.06;5033145;28;20567;-76
2022/09/25 07:59:50;;;;;;;17.73;10.75;;;;;;;-145.69;100.00;71247.19;5033505;28;20215;-76
2022/09/25 08:02:17;;;;;;;29.52;15.82;;;;;;;-145.69;100.00;71223.31;5033333;28;20251;-76
2022/09/25 08:04:44;;;;;;;30.35;15.60;;;;;;;-145.69;100.00;71199.44;5032977;28;20658;-76
2022/09/25 08:07:11;;;;;;;19.35;10.45;;;;;;;-145.69;100.00;71187.50;5033425;28;20223;-76
2022/09/25 08:09:39;;;;;;;12.18;7.40;;;;;;;-145.69;100.00;71183.50;5032997;28;20232;-76
2022/09/25 08:12:06;;;;;;;12.55;7.20;;;;;;;-145.69;100.00;71195.47;5033058;28;20204;-77
2022/09/25 08:14:33;;;;;;;10.07;7.13;;;;;;;-145.69;100.00;71185.50;5033144;28;20214;-76
2022/09/25 08:16:59;;;;;;;10.48;6.05;;;;;;;-145.69;100.00;71173.56;5032483;28;20235;-76
2022/09/25 08:19:26;;;;;;;17.02;7.88;;;;;;;-145.69;100.00;71145.72;5032885;28;20896;-76
2022/09/25 08:21:54;;;;;;;21.38;9.80;;;;;;;-145.69;100.00;71159.63;5032486;28;20204;-75
2022/09/25 08:24:21;;;;;;;21.80;9.52;;;;;;;-145.69;100.00;71139.75;5033000;28;20203;-75
2022/09/25 08:26:49;;;;;;;29.55;12.25;;;;;;;-145.69;100.00;71127.81;5032706;28;20214;-76
2022/09/25 08:29:16;;;;;;;11.88;6.90;;;;;;;-145.69;100.00;71127.81;5032891;28;20259;-76
2022/09/25 08:31:42;;;;;;;10.93;5.75;;;;;;;-145.69;100.00;71123.81;5032867;28;20227;-76
2022/09/25 08:34:09;;;;;;;20.27;9.23;;;;;;;-145.69;100.00;71127.81;5032567;28;20719;-76
2022/09/25 08:36:36;;;;;;;13.95;7.05;;;;;;;-145.69;100.00;71115.88;5032863;28;20203;-75
2022/09/25 08:39:04;;;;;;;19.38;9.40;;;;;;;-145.69;100.00;71111.88;5032595;28;20673;-75
2022/09/25 08:41:33;;;;;;;11.52;7.25;;;;;;;-145.69;100.00;71070.09;5032923;28;20254;-77
2022/09/25 08:44:04;;;;;;;9.57;5.75;;;;;;;-145.69;100.00;71040.25;5032293;28;20654;-76
2022/09/25 08:49:28;;;;;;;8.35;4.75;;;;;;;-145.69;100.00;71111.88;5032502;28;20308;-76
2022/09/25 08:52:00;;;;;;;8.95;5.68;;;;;;;-145.69;100.00;71125.81;5033274;28;20200;-77
2022/09/25 08:54:30;;;;;;;8.63;5.70;;;;;;;-145.69;100.00;71139.75;5032582;28;20200;-77
2022/09/25 08:57:02;;;;;;;6.22;4.40;;;;;;;-145.69;100.00;71169.59;5033059;28;20192;-77
2022/09/25 08:59:32;;;;;;;7.72;5.00;;;;;;;-145.69;100.00;71145.72;5036768;28;20211;-76
2022/09/25 09:02:01;;;;;;;6.28;4.07;;;;;;;-145.69;100.00;71121.84;5036112;28;20295;-76
2022/09/25 09:04:31;;;;;;;5.13;3.60;;;;;;;-145.69;100.00;71111.88;5036755;28;20207;-76
2022/09/25 09:07:03;;;;;;;12.30;6.07;;;;;;;-145.69;100.00;71080.06;5036756;28;20208;-75
2022/09/25 09:09:37;;;;;;;5.60;2.85;;;;;;;-145.69;100.00;71006.44;5036576;28;20223;-76
2022/09/25 09:12:09;;;;;;;6.28;3.83;;;;;;;-145.69;100.00;70996.47;5036521;28;20362;-76
2022/09/25 09:14:43;;;;;;;5.05;2.60;;;;;;;-145.69;100.00;70914.91;5036668;28;20227;-76
2022/09/25 09:17:17;;;;;;;16.40;7.03;;;;;;;-145.69;100.00;70966.63;5035117;28;20309;-76
2022/09/25 09:19:46;;;;;;;5.60;2.80;;;;;;;-145.69;100.00;71004.44;5035056;28;20246;-76
2022/09/25 09:22:14;;;;;;;3.92;2.72;;;;;;;-145.69;100.00;70974.59;5025370;28;20197;-75
2022/09/25 09:24:53;;;;;;;5.65;2.80;;;;;;;-145.69;100.00;70889.03;5015930;28;20196;-77
2022/09/25 09:27:31;;;;;;;4.88;2.80;;;;;;;-145.69;100.00;70904.97;5024383;28;20211;-76
2022/09/25 09:30:13;;;;;;;7.45;2.78;;;;;;;-145.69;100.00;70952.72;5034851;28;20235;-76
2022/09/25 09:33:13;;;;;;;3.70;2.45;;;;;;;-145.69;100.00;70992.50;5034560;28;20200;-76
2022/09/25 09:35:52;;;;;;;4.88;2.60;;;;;;;-145.69;100.00;70944.75;5034856;28;20196;-76
2022/09/25 09:38:27;;;;;;;6.38;3.13;;;;;;;-145.69;100.00;70956.69;5034957;28;20223;-77
2022/09/25 09:41:08;;;;;;;5.22;3.25;;;;;;;-145.69;100.00;70962.66;5034920;28;20207;-76
2022/09/25 09:43:51;;;;;;;6.93;3.33;;;;;;;-145.69;100.00;70984.53;5034705;28;20196;-76
2022/09/25 09:46:25;;;;;;;9.55;3.72;;;;;;;-145.69;100.00;71054.19;5034781;28;20199;-76
2022/09/25 09:49:04;;;;;;;6.20;3.90;;;;;;;-145.69;100.00;71040.25;5034397;28;20230;-76
2022/09/25 09:51:35;;;;;;;5.38;3.42;;;;;;;-145.69;100.00;71040.25;5034351;28;20219;-75
2022/09/25 09:54:07;;;;;;;6.90;3.50;;;;;;;-145.69;100.00;71048.22;5034788;28;20211;-77
2022/09/25 09:56:35;;;;;;;10.13;4.65;;;;;;;-145.69;100.00;71038.25;5034036;28;20701;-75
2022/09/25 09:59:04;;;;;;;5.68;3.90;;;;;;;-145.69;100.00;71016.38;5034805;28;20204;-75
2022/09/25 10:01:36;;;;;;;7.90;3.97;;;;;;;-145.69;100.00;71028.31;5034174;28;20192;-77
2022/09/25 10:04:05;;;;;;;6.60;3.42;;;;;;;-145.69;100.00;71064.13;5034393;28;20650;-78
2022/09/25 10:06:37;;;;;;;7.75;3.92;;;;;;;-145.69;100.00;71048.22;5034313;28;20208;-77
2022/09/25 10:09:04;;;;;;;9.75;4.50;;;;;;;-145.69;100.00;71032.28;5033986;28;20315;-76
2022/09/25 10:11:32;;;;;;;6.55;4.35;;;;;;;-145.69;100.00;71006.44;5034222;28;20211;-77
2022/09/25 10:14:04;;;;;;;9.38;4.43;;;;;;;-145.69;100.00;70978.56;5033968;28;20208;-77
2022/09/25 10:16:30;;;;;;;7.22;4.25;;;;;;;-145.69;100.00;70908.94;4998454;28;1035212;-76
2022/09/25 10:19:01;;;;;;;5.97;4.15;;;;;;;-145.69;100.00;70889.03;5034613;28;20208;-76
2022/09/25 10:21:31;;;;;;;7.88;4.05;;;;;;;-145.69;100.00;70817.41;5034958;28;20224;-75
2022/09/25 10:23:58;;;;;;;6.18;4.15;;;;;;;-145.69;100.00;70875.13;5035239;28;20208;-76
2022/09/25 10:26:27;;;;;;;9.73;4.38;;;;;;;-145.69;100.00;70972.59;5034830;28;20216;-75
2022/09/25 10:28:56;;;;;;;8.38;4.40;;;;;;;-145.69;100.00;70912.91;5034957;28;20231;-77
2022/09/25 10:31:26;;;;;;;6.75;4.22;;;;;;;-145.69;100.00;70922.88;5034736;28;20200;-78
2022/09/25 10:34:02;;;;;;;7.60;4.35;;;;;;;-145.69;100.00;71010.41;5035133;28;20216;-76
2022/09/25 10:36:39;;;;;;;6.63;4.25;;;;;;;-145.69;100.00;71056.16;5035041;28;20210;-76
2022/09/25 10:39:28;;;;;;;7.00;4.53;;;;;;;-145.69;100.00;71064.13;5035060;28;20681;-76
2022/09/25 10:41:57;;;;;;;7.18;4.75;;;;;;;-145.69;100.00;71036.28;5034649;28;20662;-77
2022/09/25 10:44:32;;;;;;;8.73;4.45;;;;;;;-145.69;100.00;71026.31;5034764;28;20204;-76
2022/09/25 10:50:16;;;;;;;10.18;5.65;;;;;;;-145.69;100.00;71056.16;5034287;28;20231;-77
2022/09/25 10:52:49;;;;;;;9.30;5.68;;;;;;;-145.69;100.00;71028.31;5034445;28;20665;-76
2022/09/25 10:55:27;;;;;;;11.90;5.63;;;;;;;-145.69;100.00;71024.34;5034474;28;20290;-77
2022/09/25 10:57:59;;;;;;;8.65;5.13;;;;;;;-145.69;100.00;71004.44;5034897;28;20204;-77
2022/09/25 11:00:26;;;;;;;8.77;5.50;;;;;;;-145.69;100.00;70970.63;5033789;28;20457;-77
2022/09/25 11:03:01;;;;;;;12.98;6.30;;;;;;;-145.69;100.00;70948.72;5034525;28;20669;-77
2022/09/25 11:05:30;;;;;;;10.45;5.18;;;;;;;-145.69;100.00;70873.13;5034747;28;20204;-76
2022/09/25 11:07:58;;;;;;;8.40;4.53;;;;;;;-145.69;99.32;70781.59;5033924;28;20200;-76
2022/09/25 11:10:28;;;;;;;10.57;5.07;;;;;;;-145.69;95.64;70717.94;5034619;28;20239;-76
2022/09/25 11:12:56;;;;;;;8.77;4.45;;;;;;;-145.69;92.08;70652.28;5034543;28;20211;-76
2022/09/25 11:15:26;;;;;;;8.18;4.13;;;;;;;-145.69;87.97;70614.47;5034073;28;20227;-76
2022/09/25 11:17:57;;;;;;;10.60;4.28;;;;;;;-145.69;90.00;70622.44;5033991;28;20208;-76
2022/09/25 11:20:28;;;;;;;8.07;4.20;;;;;;;-145.69;93.96;70763.69;5033115;28;20200;-77
2022/09/25 11:23:04;;;;;;;9.68;3.70;;;;;;;-145.69;95.05;70686.09;5034362;28;20208;-76
2022/09/25 11:25:40;;;;;;;8.85;4.53;;;;;;;-145.69;98.49;70656.25;5034274;28;20202;-76
2022/09/25 11:28:13;;;;;;;6.30;3.65;;;;;;;-145.69;94.85;70690.09;5033945;28;20203;-76